createdAt,value
2023-02-05T00:00:00.000Z,10.28
2023-02-05T00:15:00.000Z,9.3
2023-02-05T00:30:00.000Z,8.59
2023-02-05T00:45:00.000Z,9.94
2023-02-05T01:00:00.000Z,8.46
2023-02-05T01:15:00.000Z,8.68
2023-02-05T01:30:00.000Z,9.49
2023-02-05T01:45:00.000Z,9.41
2023-02-05T02:00:00.000Z,14.45
2023-02-05T02:15:00.000Z,13.71
2023-02-05T02:30:00.000Z,8.36
2023-02-05T02:45:00.000Z,8.33
2023-02-05T03:00:00.000Z,9.14
2023-02-05T03:15:00.000Z,9.12
2023-02-05T03:30:00.000Z,9.04
2023-02-05T03:45:00.000Z,9.05
2023-02-05T04:00:00.000Z,9.64
2023-02-05T04:15:00.000Z,9.27
2023-02-05T04:30:00.000Z,9.11
2023-02-05T04:45:00.000Z,9.16
2023-02-05T05:00:00.000Z,9.82
2023-02-05T05:15:00.000Z,9.06
2023-02-05T05:30:00.000Z,9.45
2023-02-05T05:45:00.000Z,15.31
2023-02-05T06:00:00.000Z,9.47
2023-02-05T06:15:00.000Z,9.8
2023-02-05T06:30:00.000Z,10.15
2023-02-05T06:45:00.000Z,10.69
2023-02-05T07:00:00.000Z,9.89
2023-02-05T07:15:00.000Z,9.89
2023-02-05T07:30:00.000Z,10.92
2023-02-05T07:45:00.000Z,10.93
2023-02-05T08:00:00.000Z,10.85
2023-02-05T08:15:00.000Z,9.69
2023-02-05T08:30:00.000Z,10.27
2023-02-05T08:45:00.000Z,8.79
2023-02-05T09:00:00.000Z,6.81
2023-02-05T09:15:00.000Z,5.8
2023-02-05T09:30:00.000Z,5.71
2023-02-05T09:45:00.000Z,4.93
2023-02-05T10:00:00.000Z,3.88
2023-02-05T10:15:00.000Z,3.36
2023-02-05T10:30:00.000Z,4.51
2023-02-05T10:45:00.000Z,3.29
2023-02-05T11:00:00.000Z,3.44
2023-02-05T11:15:00.000Z,4.02
2023-02-05T11:30:00.000Z,3.92
2023-02-05T11:45:00.000Z,4.05
2023-02-05T12:00:00.000Z,4.68
2023-02-05T12:15:00.000Z,3.69
2023-02-05T12:30:00.000Z,4.16
2023-02-05T12:45:00.000Z,4.76
2023-02-05T13:00:00.000Z,10.54
2023-02-05T13:15:00.000Z,7.72
2023-02-05T13:30:00.000Z,7.68
2023-02-05T13:45:00.000Z,5.46
2023-02-05T14:00:00.000Z,5.21
2023-02-05T14:15:00.000Z,5.27
2023-02-05T14:30:00.000Z,5.47
2023-02-05T14:45:00.000Z,7.29
2023-02-05T15:00:00.000Z,5.22
2023-02-05T15:15:00.000Z,5.35
2023-02-05T15:30:00.000Z,5.48
2023-02-05T15:45:00.000Z,5.14
2023-02-05T16:00:00.000Z,5.78
2023-02-05T16:15:00.000Z,7.91
2023-02-05T16:30:00.000Z,7.29
2023-02-05T16:45:00.000Z,8.71
2023-02-05T17:00:00.000Z,6.74
2023-02-05T17:15:00.000Z,7.13
2023-02-05T17:30:00.000Z,7.94
2023-02-05T17:45:00.000Z,7.89
2023-02-05T18:00:00.000Z,7.52
2023-02-05T18:15:00.000Z,10.72
2023-02-05T18:30:00.000Z,9.18
2023-02-05T18:45:00.000Z,8.75
2023-02-05T19:00:00.000Z,8.65
2023-02-05T19:15:00.000Z,12.66
2023-02-05T19:30:00.000Z,16.18
2023-02-05T19:45:00.000Z,26.64
2023-02-05T20:00:00.000Z,10.05
2023-02-05T20:15:00.000Z,8.9
2023-02-05T20:30:00.000Z,9.24
2023-02-05T20:45:00.000Z,8.91
2023-02-05T21:00:00.000Z,8.65
2023-02-05T21:15:00.000Z,8.86
2023-02-05T21:30:00.000Z,9.07
2023-02-05T21:45:00.000Z,9.36
2023-02-05T22:00:00.000Z,9.01
2023-02-05T22:15:00.000Z,9.11
2023-02-05T22:30:00.000Z,11.62
2023-02-05T22:45:00.000Z,12.15
2023-02-05T23:00:00.000Z,11.58
2023-02-05T23:15:00.000Z,11.86
2023-02-05T23:30:00.000Z,12.92
2023-02-05T23:45:00.000Z,13.34
